sensor_id;sensor_type;location;lat;lon;timestamp;pressure;altitude;pressure_sealevel;temperature;humidity
26775;BME280;14362;51.902;7.626;2023-05-23T00:03:42;100921.06;;;16.59;100.00
26775;BME280;14362;51.902;7.626;2023-05-23T00:07:44;100921.25;;;16.66;100.00
26775;BME280;14362;51.902;7.626;2023-05-23T00:11:47;100936.56;;;16.53;100.00
26775;BME280;14362;51.902;7.626;2023-05-23T00:15:48;100942.13;;;16.49;100.00
26775;BME280;14362;51.902;7.626;2023-05-23T00:19:50;100943.63;;;16.47;100.00
26775;BME280;14362;51.902;7.626;2023-05-23T00:23:51;100940.09;;;16.50;100.00
26775;BME280;14362;51.902;7.626;2023-05-23T00:27:54;100946.72;;;16.30;100.00
26775;BME280;14362;51.902;7.626;2023-05-23T00:31:56;100938.88;;;16.24;100.00
26775;BME280;14362;51.902;7.626;2023-05-23T00:35:57;100942.88;;;16.23;100.00
26775;BME280;14362;51.902;7.626;2023-05-23T00:39:58;100945.94;;;16.18;100.00
26775;BME280;14362;51.902;7.626;2023-05-23T00:44:01;100944.28;;;16.17;100.00
26775;BME280;14362;51.902;7.626;2023-05-23T00:48:05;100952.16;;;16.11;100.00
26775;BME280;14362;51.902;7.626;2023-05-23T00:52:08;100955.91;;;16.15;100.00
26775;BME280;14362;51.902;7.626;2023-05-23T00:56:10;100959.53;;;16.16;100.00
26775;BME280;14362;51.902;7.626;2023-05-23T01:00:14;100955.34;;;16.10;100.00
26775;BME280;14362;51.902;7.626;2023-05-23T01:04:16;100955.22;;;16.06;100.00
26775;BME280;14362;51.902;7.626;2023-05-23T01:08:20;100964.69;;;16.14;100.00
26775;BME280;14362;51.902;7.626;2023-05-23T01:12:28;100963.56;;;16.03;100.00
26775;BME280;14362;51.902;7.626;2023-05-23T01:16:39;100954.41;;;16.06;100.00
26775;BME280;14362;51.902;7.626;2023-05-23T01:20:49;100966.28;;;15.99;100.00
26775;BME280;14362;51.902;7.626;2023-05-23T01:24:54;100964.25;;;16.00;100.00
26775;BME280;14362;51.902;7.626;2023-05-23T01:29:01;100950.34;;;15.91;100.00
26775;BME280;14362;51.902;7.626;2023-05-23T01:33:09;100956.34;;;15.90;100.00
26775;BME280;14362;51.902;7.626;2023-05-23T01:37:11;100949.16;;;15.92;100.00
26775;BME280;14362;51.902;7.626;2023-05-23T01:41:13;100952.91;;;15.96;100.00
26775;BME280;14362;51.902;7.626;2023-05-23T01:45:17;100954.31;;;15.90;100.00
26775;BME280;14362;51.902;7.626;2023-05-23T01:49:20;100962.75;;;15.90;100.00
26775;BME280;14362;51.902;7.626;2023-05-23T01:53:22;100968.63;;;15.85;100.00
26775;BME280;14362;51.902;7.626;2023-05-23T01:57:25;100969.91;;;15.88;100.00
26775;BME280;14362;51.902;7.626;2023-05-23T02:01:30;100967.91;;;15.88;100.00
26775;BME280;14362;51.902;7.626;2023-05-23T02:05:32;100974.38;;;15.89;100.00
26775;BME280;14362;51.902;7.626;2023-05-23T02:09:33;100979.41;;;15.83;100.00
26775;BME280;14362;51.902;7.626;2023-05-23T02:13:34;100973.06;;;15.86;100.00
26775;BME280;14362;51.902;7.626;2023-05-23T02:17:37;100984.09;;;15.79;100.00
26775;BME280;14362;51.902;7.626;2023-05-23T02:21:40;100976.00;;;15.90;100.00
26775;BME280;14362;51.902;7.626;2023-05-23T02:25:41;100986.78;;;15.76;100.00
26775;BME280;14362;51.902;7.626;2023-05-23T02:29:43;100980.22;;;15.84;100.00
26775;BME280;14362;51.902;7.626;2023-05-23T02:33:46;100985.25;;;15.90;100.00
26775;BME280;14362;51.902;7.626;2023-05-23T02:37:47;100978.34;;;15.88;100.00
26775;BME280;14362;51.902;7.626;2023-05-23T02:41:48;100988.09;;;15.78;100.00
26775;BME280;14362;51.902;7.626;2023-05-23T02:45:50;100994.66;;;15.82;100.00
26775;BME280;14362;51.902;7.626;2023-05-23T02:49:52;100995.34;;;15.79;100.00
26775;BME280;14362;51.902;7.626;2023-05-23T02:53:54;100994.53;;;15.91;100.00
26775;BME280;14362;51.902;7.626;2023-05-23T02:57:55;101000.16;;;15.67;100.00
26775;BME280;14362;51.902;7.626;2023-05-23T03:01:57;101001.56;;;15.73;100.00
26775;BME280;14362;51.902;7.626;2023-05-23T03:06:01;101000.16;;;15.67;100.00
26775;BME280;14362;51.902;7.626;2023-05-23T03:10:04;100997.94;;;15.60;100.00
26775;BME280;14362;51.902;7.626;2023-05-23T03:14:06;101000.28;;;15.58;100.00
26775;BME280;14362;51.902;7.626;2023-05-23T03:18:07;101004.50;;;15.64;100.00
26775;BME280;14362;51.902;7.626;2023-05-23T03:22:10;100998.28;;;15.71;100.00
26775;BME280;14362;51.902;7.626;2023-05-23T03:26:11;101010.31;;;15.47;100.00
26775;BME280;14362;51.902;7.626;2023-05-23T03:30:13;101008.59;;;15.55;100.00
26775;BME280;14362;51.902;7.626;2023-05-23T03:34:14;101009.97;;;15.49;100.00
26775;BME280;14362;51.902;7.626;2023-05-23T03:38:17;101016.28;;;15.46;100.00
26775;BME280;14362;51.902;7.626;2023-05-23T03:42:18;101024.03;;;15.49;100.00
26775;BME280;14362;51.902;7.626;2023-05-23T03:46:20;101025.56;;;15.46;100.00
26775;BME280;14362;51.902;7.626;2023-05-23T03:50:21;101037.97;;;15.45;100.00
26775;BME280;14362;51.902;7.626;2023-05-23T03:54:24;101030.94;;;15.39;100.00
26775;BME280;14362;51.902;7.626;2023-05-23T03:58:25;101033.38;;;15.41;100.00
26775;BME280;14362;51.902;7.626;2023-05-23T04:02:26;101035.13;;;15.34;100.00
26775;BME280;14362;51.902;7.626;2023-05-23T04:06:28;101046.34;;;15.34;100.00
26775;BME280;14362;51.902;7.626;2023-05-23T04:10:31;101048.94;;;15.27;100.00
26775;BME280;14362;51.902;7.626;2023-05-23T04:14:33;101049.44;;;15.20;100.00
26775;BME280;14362;51.902;7.626;2023-05-23T04:18:34;101055.78;;;15.17;100.00
26775;BME280;14362;51.902;7.626;2023-05-23T04:22:38;101060.34;;;15.10;100.00
26775;BME280;14362;51.902;7.626;2023-05-23T04:26:40;101055.06;;;15.20;100.00
26775;BME280;14362;51.902;7.626;2023-05-23T04:30:42;101059.97;;;15.11;100.00
26775;BME280;14362;51.902;7.626;2023-05-23T04:34:44;101063.16;;;15.10;100.00
26775;BME280;14362;51.902;7.626;2023-05-23T04:38:45;101071.88;;;15.08;100.00
26775;BME280;14362;51.902;7.626;2023-05-23T04:42:48;101059.69;;;15.04;100.00
26775;BME280;14362;51.902;7.626;2023-05-23T04:46:50;101066.47;;;15.03;100.00
26775;BME280;14362;51.902;7.626;2023-05-23T04:50:52;101075.53;;;15.09;100.00
26775;BME280;14362;51.902;7.626;2023-05-23T04:54:55;101089.09;;;15.07;100.00
26775;BME280;14362;51.902;7.626;2023-05-23T04:58:57;101084.66;;;15.06;100.00
26775;BME280;14362;51.902;7.626;2023-05-23T05:02:59;101078.75;;;14.99;100.00
26775;BME280;14362;51.902;7.626;2023-05-23T05:07:00;101090.59;;;15.04;100.00
26775;BME280;14362;51.902;7.626;2023-05-23T05:11:03;101103.81;;;15.04;100.00
26775;BME280;14362;51.902;7.626;2023-05-23T05:15:07;101106.84;;;14.99;100.00
26775;BME280;14362;51.902;7.626;2023-05-23T05:19:09;101114.84;;;15.09;100.00
26775;BME280;14362;51.902;7.626;2023-05-23T05:23:10;101127.16;;;14.96;100.00
26775;BME280;14362;51.902;7.626;2023-05-23T05:27:11;101131.13;;;14.95;100.00
26775;BME280;14362;51.902;7.626;2023-05-23T05:31:14;101125.97;;;14.85;100.00
26775;BME280;14362;51.902;7.626;2023-05-23T05:35:17;101138.00;;;14.85;100.00
26775;BME280;14362;51.902;7.626;2023-05-23T05:39:19;101130.25;;;14.82;100.00
26775;BME280;14362;51.902;7.626;2023-05-23T05:43:20;101136.09;;;14.77;100.00
26775;BME280;14362;51.902;7.626;2023-05-23T05:47:23;101146.22;;;14.70;100.00
26775;BME280;14362;51.902;7.626;2023-05-23T05:51:25;101151.41;;;14.59;100.00
26775;BME280;14362;51.902;7.626;2023-05-23T05:55:26;101152.22;;;14.60;100.00
26775;BME280;14362;51.902;7.626;2023-05-23T05:59:27;101158.44;;;14.65;100.00
26775;BME280;14362;51.902;7.626;2023-05-23T06:03:30;101168.75;;;14.61;100.00
26775;BME280;14362;51.902;7.626;2023-05-23T06:07:32;101167.03;;;14.69;100.00
26775;BME280;14362;51.902;7.626;2023-05-23T06:11:33;101164.59;;;14.59;100.00
26775;BME280;14362;51.902;7.626;2023-05-23T06:15:38;101187.22;;;14.62;100.00
26775;BME280;14362;51.902;7.626;2023-05-23T06:19:41;101187.75;;;14.27;100.00
26775;BME280;14362;51.902;7.626;2023-05-23T06:23:45;101194.34;;;14.31;100.00
26775;BME280;14362;51.902;7.626;2023-05-23T06:27:49;101193.44;;;14.39;100.00
26775;BME280;14362;51.902;7.626;2023-05-23T06:31:51;101206.66;;;14.38;100.00
26775;BME280;14362;51.902;7.626;2023-05-23T06:35:54;101205.88;;;14.30;100.00
26775;BME280;14362;51.902;7.626;2023-05-23T06:39:55;101204.94;;;14.17;100.00
26775;BME280;14362;51.902;7.626;2023-05-23T06:43:56;101209.06;;;14.20;100.00
26775;BME280;14362;51.902;7.626;2023-05-23T06:47:59;101214.69;;;14.11;100.00
26775;BME280;14362;51.902;7.626;2023-05-23T06:52:02;101206.59;;;14.18;100.00
26775;BME280;14362;51.902;7.626;2023-05-23T06:56:04;101219.31;;;14.07;100.00
26775;BME280;14362;51.902;7.626;2023-05-23T07:00:07;101227.56;;;14.04;100.00
26775;BME280;14362;51.902;7.626;2023-05-23T07:04:08;101234.00;;;14.04;100.00
26775;BME280;14362;51.902;7.626;2023-05-23T07:08:12;101239.00;;;13.90;100.00
26775;BME280;14362;51.902;7.626;2023-05-23T07:12:13;101254.47;;;13.96;100.00
26775;BME280;14362;51.902;7.626;2023-05-23T07:16:15;101240.50;;;13.79;100.00
26775;BME280;14362;51.902;7.626;2023-05-23T07:20:17;101248.56;;;13.81;100.00
26775;BME280;14362;51.902;7.626;2023-05-23T07:24:19;101266.53;;;13.80;100.00
26775;BME280;14362;51.902;7.626;2023-05-23T07:28:21;101269.00;;;13.81;100.00
26775;BME280;14362;51.902;7.626;2023-05-23T07:32:22;101271.00;;;13.81;100.00
26775;BME280;14362;51.902;7.626;2023-05-23T07:36:23;101276.44;;;13.77;100.00
26775;BME280;14362;51.902;7.626;2023-05-23T07:40:26;101285.16;;;13.76;100.00
26775;BME280;14362;51.902;7.626;2023-05-23T07:44:28;101279.91;;;13.74;100.00
26775;BME280;14362;51.902;7.626;2023-05-23T07:48:29;101286.31;;;13.75;100.00
26775;BME280;14362;51.902;7.626;2023-05-23T07:52:31;101286.47;;;13.78;100.00
26775;BME280;14362;51.902;7.626;2023-05-23T07:56:34;101292.09;;;13.61;100.00
26775;BME280;14362;51.902;7.626;2023-05-23T08:00:37;101296.25;;;13.64;100.00
26775;BME280;14362;51.902;7.626;2023-05-23T08:04:40;101309.75;;;13.45;100.00
26775;BME280;14362;51.902;7.626;2023-05-23T08:08:41;101312.72;;;13.40;100.00
26775;BME280;14362;51.902;7.626;2023-05-23T08:12:45;101310.75;;;13.49;100.00
26775;BME280;14362;51.902;7.626;2023-05-23T08:16:46;101317.00;;;13.46;100.00
26775;BME280;14362;51.902;7.626;2023-05-23T08:20:48;101331.66;;;13.43;100.00
26775;BME280;14362;51.902;7.626;2023-05-23T08:24:49;101339.72;;;13.36;100.00
26775;BME280;14362;51.902;7.626;2023-05-23T08:28:53;101342.88;;;13.51;100.00
26775;BME280;14362;51.902;7.626;2023-05-23T08:32:55;101343.88;;;13.55;100.00
26775;BME280;14362;51.902;7.626;2023-05-23T08:36:56;101351.44;;;13.55;100.00
26775;BME280;14362;51.902;7.626;2023-05-23T08:41:00;101359.97;;;13.41;100.00
26775;BME280;14362;51.902;7.626;2023-05-23T08:45:04;101367.06;;;13.39;100.00
26775;BME280;14362;51.902;7.626;2023-05-23T08:49:06;101363.13;;;13.40;100.00
26775;BME280;14362;51.902;7.626;2023-05-23T08:53:08;101371.50;;;13.31;100.00
26775;BME280;14362;51.902;7.626;2023-05-23T08:57:10;101365.41;;;13.38;100.00
26775;BME280;14362;51.902;7.626;2023-05-23T09:01:13;101376.75;;;13.25;100.00
26775;BME280;14362;51.902;7.626;2023-05-23T09:05:17;101380.06;;;13.27;100.00
26775;BME280;14362;51.902;7.626;2023-05-23T09:09:19;101382.69;;;13.23;100.00
26775;BME280;14362;51.902;7.626;2023-05-23T09:13:20;101394.41;;;13.25;100.00
26775;BME280;14362;51.902;7.626;2023-05-23T09:17:23;101386.47;;;13.10;100.00
26775;BME280;14362;51.902;7.626;2023-05-23T09:21:24;101398.50;;;13.19;100.00
26775;BME280;14362;51.902;7.626;2023-05-23T09:25:25;101399.94;;;13.00;100.00
26775;BME280;14362;51.902;7.626;2023-05-23T09:29:27;101397.78;;;12.97;100.00
26775;BME280;14362;51.902;7.626;2023-05-23T09:33:34;101399.00;;;12.82;100.00
26775;BME280;14362;51.902;7.626;2023-05-23T09:37:38;101410.75;;;12.93;100.00
26775;BME280;14362;51.902;7.626;2023-05-23T09:41:40;101418.22;;;13.14;100.00
26775;BME280;14362;51.902;7.626;2023-05-23T09:45:41;101413.31;;;13.11;100.00
26775;BME280;14362;51.902;7.626;2023-05-23T09:49:45;101409.03;;;13.14;100.00
26775;BME280;14362;51.902;7.626;2023-05-23T09:53:47;101414.06;;;12.95;100.00
26775;BME280;14362;51.902;7.626;2023-05-23T09:57:52;101419.63;;;13.33;100.00
26775;BME280;14362;51.902;7.626;2023-05-23T10:01:56;101412.66;;;13.23;100.00
26775;BME280;14362;51.902;7.626;2023-05-23T10:06:05;101408.94;;;13.52;100.00
26775;BME280;14362;51.902;7.626;2023-05-23T10:10:11;101419.34;;;13.77;100.00
26775;BME280;14362;51.902;7.626;2023-05-23T10:14:13;101421.28;;;14.11;100.00
26775;BME280;14362;51.902;7.626;2023-05-23T10:18:17;101421.47;;;14.39;100.00
26775;BME280;14362;51.902;7.626;2023-05-23T10:22:23;101421.75;;;14.46;100.00
26775;BME280;14362;51.902;7.626;2023-05-23T10:26:25;101431.47;;;14.66;100.00
26775;BME280;14362;51.902;7.626;2023-05-23T10:30:27;101423.69;;;14.71;100.00
26775;BME280;14362;51.902;7.626;2023-05-23T10:34:33;101420.25;;;14.66;100.00
26775;BME280;14362;51.902;7.626;2023-05-23T10:38:42;101429.34;;;14.54;100.00
26775;BME280;14362;51.902;7.626;2023-05-23T10:42:51;101441.88;;;14.57;100.00
26775;BME280;14362;51.902;7.626;2023-05-23T10:46:57;101441.69;;;14.62;100.00
26775;BME280;14362;51.902;7.626;2023-05-23T10:51:04;101446.19;;;14.46;100.00
26775;BME280;14362;51.902;7.626;2023-05-23T10:55:13;101456.28;;;14.30;100.00
26775;BME280;14362;51.902;7.626;2023-05-23T10:59:20;101452.28;;;13.97;100.00
26775;BME280;14362;51.902;7.626;2023-05-23T11:03:33;101453.78;;;14.12;100.00
26775;BME280;14362;51.902;7.626;2023-05-23T11:07:35;101456.47;;;14.25;100.00
26775;BME280;14362;51.902;7.626;2023-05-23T11:11:55;101459.25;;;14.42;100.00
26775;BME280;14362;51.902;7.626;2023-05-23T11:15:59;101471.44;;;14.46;100.00
26775;BME280;14362;51.902;7.626;2023-05-23T11:20:05;101470.13;;;14.35;100.00
26775;BME280;14362;51.902;7.626;2023-05-23T11:24:08;101467.81;;;14.45;100.00
26775;BME280;14362;51.902;7.626;2023-05-23T11:28:12;101472.25;;;14.55;100.00
26775;BME280;14362;51.902;7.626;2023-05-23T11:32:13;101460.88;;;14.43;100.00
26775;BME280;14362;51.902;7.626;2023-05-23T11:36:15;101468.47;;;14.26;100.00
26775;BME280;14362;51.902;7.626;2023-05-23T11:40:27;101472.06;;;14.60;100.00
26775;BME280;14362;51.902;7.626;2023-05-23T11:44:30;101468.22;;;14.90;100.00
26775;BME280;14362;51.902;7.626;2023-05-23T11:48:32;101452.41;;;15.14;100.00
26775;BME280;14362;51.902;7.626;2023-05-23T11:52:33;101450.53;;;15.35;100.00
26775;BME280;14362;51.902;7.626;2023-05-23T11:56:40;101463.25;;;15.33;100.00
26775;BME280;14362;51.902;7.626;2023-05-23T12:00:43;101453.97;;;15.40;100.00
26775;BME280;14362;51.902;7.626;2023-05-23T12:04:45;101467.34;;;15.64;100.00
26775;BME280;14362;51.902;7.626;2023-05-23T12:08:46;101472.50;;;15.62;100.00
26775;BME280;14362;51.902;7.626;2023-05-23T12:12:50;101466.88;;;15.62;100.00
26775;BME280;14362;51.902;7.626;2023-05-23T12:16:53;101478.66;;;15.84;100.00
26775;BME280;14362;51.902;7.626;2023-05-23T12:20:58;101468.91;;;16.02;100.00
26775;BME280;14362;51.902;7.626;2023-05-23T12:25:01;101473.44;;;16.15;100.00
26775;BME280;14362;51.902;7.626;2023-05-23T12:29:04;101481.31;;;16.01;98.99
26775;BME280;14362;51.902;7.626;2023-05-23T12:33:08;101469.09;;;16.18;100.00
26775;BME280;14362;51.902;7.626;2023-05-23T12:37:12;101472.88;;;16.22;100.00
26775;BME280;14362;51.902;7.626;2023-05-23T12:41:15;101486.03;;;16.09;100.00
26775;BME280;14362;51.902;7.626;2023-05-23T12:45:18;101473.00;;;16.25;100.00
26775;BME280;14362;51.902;7.626;2023-05-23T12:49:21;101485.41;;;16.24;97.76
26775;BME280;14362;51.902;7.626;2023-05-23T12:53:23;101466.63;;;16.37;87.54
26775;BME280;14362;51.902;7.626;2023-05-23T12:57:24;101461.91;;;16.29;81.88
26775;BME280;14362;51.902;7.626;2023-05-23T13:01:26;101477.22;;;16.40;96.40
26775;BME280;14362;51.902;7.626;2023-05-23T13:05:28;101475.38;;;16.76;94.77
26775;BME280;14362;51.902;7.626;2023-05-23T13:09:30;101464.31;;;16.71;88.18
26775;BME280;14362;51.902;7.626;2023-05-23T13:13:31;101465.06;;;16.92;74.97
26775;BME280;14362;51.902;7.626;2023-05-23T13:17:32;101470.28;;;17.14;90.08
26775;BME280;14362;51.902;7.626;2023-05-23T13:21:35;101476.53;;;17.31;68.57
26775;BME280;14362;51.902;7.626;2023-05-23T13:25:37;101483.78;;;17.20;72.91
26775;BME280;14362;51.902;7.626;2023-05-23T13:29:38;101494.13;;;16.84;71.82
26775;BME280;14362;51.902;7.626;2023-05-23T13:33:39;101499.28;;;16.82;74.79
26775;BME280;14362;51.902;7.626;2023-05-23T13:37:42;101498.28;;;16.54;69.29
26775;BME280;14362;51.902;7.626;2023-05-23T13:41:44;101486.22;;;16.65;70.25
26775;BME280;14362;51.902;7.626;2023-05-23T13:45:45;101486.75;;;16.91;73.50
26775;BME280;14362;51.902;7.626;2023-05-23T13:49:47;101495.00;;;17.08;69.80
26775;BME280;14362;51.902;7.626;2023-05-23T13:53:51;101491.97;;;17.13;72.06
26775;BME280;14362;51.902;7.626;2023-05-23T13:57:53;101497.38;;;17.18;71.23
26775;BME280;14362;51.902;7.626;2023-05-23T14:01:54;101497.31;;;17.39;69.64
26775;BME280;14362;51.902;7.626;2023-05-23T14:05:56;101495.44;;;17.43;63.01
26775;BME280;14362;51.902;7.626;2023-05-23T14:09:58;101494.66;;;16.98;64.83
26775;BME280;14362;51.902;7.626;2023-05-23T14:14:00;101502.63;;;16.96;69.61
26775;BME280;14362;51.902;7.626;2023-05-23T14:18:01;101498.88;;;17.04;66.61
26775;BME280;14362;51.902;7.626;2023-05-23T14:22:03;101492.91;;;17.05;67.06
26775;BME280;14362;51.902;7.626;2023-05-23T14:26:05;101508.75;;;17.10;70.18
26775;BME280;14362;51.902;7.626;2023-05-23T14:30:08;101504.19;;;16.73;69.58
26775;BME280;14362;51.902;7.626;2023-05-23T14:34:09;101500.91;;;16.71;74.92
26775;BME280;14362;51.902;7.626;2023-05-23T14:38:11;101509.72;;;16.69;78.17
26775;BME280;14362;51.902;7.626;2023-05-23T14:42:14;101511.59;;;16.45;74.38
26775;BME280;14362;51.902;7.626;2023-05-23T14:46:16;101517.44;;;16.40;72.58
26775;BME280;14362;51.902;7.626;2023-05-23T14:50:17;101515.78;;;16.39;75.17
26775;BME280;14362;51.902;7.626;2023-05-23T14:54:19;101517.97;;;16.54;70.12
26775;BME280;14362;51.902;7.626;2023-05-23T14:58:22;101516.53;;;16.80;65.52
26775;BME280;14362;51.902;7.626;2023-05-23T15:02:24;101512.53;;;16.69;62.50
26775;BME280;14362;51.902;7.626;2023-05-23T15:06:26;101515.47;;;16.52;64.68
26775;BME280;14362;51.902;7.626;2023-05-23T15:10:27;101505.63;;;16.46;64.61
26775;BME280;14362;51.902;7.626;2023-05-23T15:14:30;101502.94;;;16.82;68.72
26775;BME280;14362;51.902;7.626;2023-05-23T15:18:31;101516.25;;;17.06;67.47
26775;BME280;14362;51.902;7.626;2023-05-23T15:22:33;101515.78;;;17.04;60.14
26775;BME280;14362;51.902;7.626;2023-05-23T15:26:34;101509.94;;;17.21;64.54
26775;BME280;14362;51.902;7.626;2023-05-23T15:30:37;101513.81;;;17.16;62.19
26775;BME280;14362;51.902;7.626;2023-05-23T15:34:39;101510.47;;;17.35;59.32
26775;BME280;14362;51.902;7.626;2023-05-23T15:38:40;101498.44;;;17.14;60.80
26775;BME280;14362;51.902;7.626;2023-05-23T15:42:42;101500.25;;;16.86;58.72
26775;BME280;14362;51.902;7.626;2023-05-23T15:46:45;101507.78;;;16.94;63.35
26775;BME280;14362;51.902;7.626;2023-05-23T15:50:46;101499.81;;;16.96;68.12
26775;BME280;14362;51.902;7.626;2023-05-23T15:54:48;101500.72;;;16.88;63.59
26775;BME280;14362;51.902;7.626;2023-05-23T15:58:49;101511.41;;;16.62;62.11
26775;BME280;14362;51.902;7.626;2023-05-23T16:02:52;101523.41;;;16.59;63.21
26775;BME280;14362;51.902;7.626;2023-05-23T16:06:53;101519.44;;;16.72;61.26
26775;BME280;14362;51.902;7.626;2023-05-23T16:10:55;101516.59;;;16.40;55.71
26775;BME280;14362;51.902;7.626;2023-05-23T16:14:56;101518.94;;;16.58;56.35
26775;BME280;14362;51.902;7.626;2023-05-23T16:18:59;101518.94;;;16.58;58.63
26775;BME280;14362;51.902;7.626;2023-05-23T16:23:01;101515.00;;;16.71;57.90
26775;BME280;14362;51.902;7.626;2023-05-23T16:27:02;101527.81;;;16.80;58.64
26775;BME280;14362;51.902;7.626;2023-05-23T16:31:06;101516.59;;;16.60;55.67
26775;BME280;14362;51.902;7.626;2023-05-23T16:35:09;101514.63;;;16.72;60.13
26775;BME280;14362;51.902;7.626;2023-05-23T16:39:11;101522.97;;;16.81;58.70
26775;BME280;14362;51.902;7.626;2023-05-23T16:43:12;101509.84;;;16.52;61.44
26775;BME280;14362;51.902;7.626;2023-05-23T16:47:14;101511.19;;;16.35;57.37
26775;BME280;14362;51.902;7.626;2023-05-23T16:51:16;101504.59;;;16.51;57.38
26775;BME280;14362;51.902;7.626;2023-05-23T16:55:18;101509.81;;;16.41;58.98
26775;BME280;14362;51.902;7.626;2023-05-23T16:59:19;101510.53;;;16.29;57.66
26775;BME280;14362;51.902;7.626;2023-05-23T17:03:21;101516.69;;;16.31;57.36
26775;BME280;14362;51.902;7.626;2023-05-23T17:07:23;101517.66;;;16.35;58.80
26775;BME280;14362;51.902;7.626;2023-05-23T17:11:25;101523.44;;;16.30;57.04
26775;BME280;14362;51.902;7.626;2023-05-23T17:15:26;101514.75;;;16.43;54.76
26775;BME280;14362;51.902;7.626;2023-05-23T17:19:28;101521.34;;;16.47;58.54
26775;BME280;14362;51.902;7.626;2023-05-23T17:23:30;101528.09;;;16.26;58.92
26775;BME280;14362;51.902;7.626;2023-05-23T17:27:32;101527.66;;;16.44;57.09
26775;BME280;14362;51.902;7.626;2023-05-23T17:31:34;101525.84;;;16.20;57.91
26775;BME280;14362;51.902;7.626;2023-05-23T17:35:35;101525.59;;;16.13;58.29
26775;BME280;14362;51.902;7.626;2023-05-23T17:39:38;101513.38;;;15.80;60.21
26775;BME280;14362;51.902;7.626;2023-05-23T17:43:40;101527.69;;;15.66;63.58
26775;BME280;14362;51.902;7.626;2023-05-23T17:47:42;101533.94;;;15.72;65.31
26775;BME280;14362;51.902;7.626;2023-05-23T17:51:43;101536.28;;;15.33;60.53
26775;BME280;14362;51.902;7.626;2023-05-23T17:55:46;101548.91;;;15.55;63.63
26775;BME280;14362;51.902;7.626;2023-05-23T17:59:48;101543.25;;;15.64;64.50
26775;BME280;14362;51.902;7.626;2023-05-23T18:03:49;101542.25;;;15.60;64.50
26775;BME280;14362;51.902;7.626;2023-05-23T18:07:52;101537.22;;;14.99;64.07
26775;BME280;14362;51.902;7.626;2023-05-23T18:11:55;101538.69;;;14.97;66.69
26775;BME280;14362;51.902;7.626;2023-05-23T18:15:56;101539.69;;;14.92;66.42
26775;BME280;14362;51.902;7.626;2023-05-23T18:19:58;101543.16;;;14.89;67.23
26775;BME280;14362;51.902;7.626;2023-05-23T18:24:00;101542.38;;;14.55;64.99
26775;BME280;14362;51.902;7.626;2023-05-23T18:28:03;101546.34;;;14.37;67.17
26775;BME280;14362;51.902;7.626;2023-05-23T18:32:05;101559.41;;;14.41;67.17
26775;BME280;14362;51.902;7.626;2023-05-23T18:36:07;101558.41;;;14.21;67.87
26775;BME280;14362;51.902;7.626;2023-05-23T18:40:09;101556.34;;;14.04;68.67
26775;BME280;14362;51.902;7.626;2023-05-23T18:44:12;101570.22;;;14.09;68.56
26775;BME280;14362;51.902;7.626;2023-05-23T18:48:13;101564.94;;;14.08;71.41
26775;BME280;14362;51.902;7.626;2023-05-23T18:52:15;101571.84;;;13.93;70.93
26775;BME280;14362;51.902;7.626;2023-05-23T18:56:16;101582.53;;;13.83;68.88
26775;BME280;14362;51.902;7.626;2023-05-23T19:00:20;101590.22;;;13.69;71.32
26775;BME280;14362;51.902;7.626;2023-05-23T19:04:21;101594.34;;;13.63;69.92
26775;BME280;14362;51.902;7.626;2023-05-23T19:08:23;101606.19;;;13.60;72.01
26775;BME280;14362;51.902;7.626;2023-05-23T19:12:24;101612.69;;;13.38;70.02
26775;BME280;14362;51.902;7.626;2023-05-23T19:16:27;101613.34;;;13.35;70.96
26775;BME280;14362;51.902;7.626;2023-05-23T19:20:29;101611.75;;;13.21;71.64
26775;BME280;14362;51.902;7.626;2023-05-23T19:24:31;101620.88;;;13.05;71.62
26775;BME280;14362;51.902;7.626;2023-05-23T19:28:32;101632.47;;;12.90;72.22
26775;BME280;14362;51.902;7.626;2023-05-23T19:32:35;101626.97;;;13.07;76.30
26775;BME280;14362;51.902;7.626;2023-05-23T19:36:37;101635.31;;;12.98;77.56
26775;BME280;14362;51.902;7.626;2023-05-23T19:40:38;101642.09;;;12.84;79.35
26775;BME280;14362;51.902;7.626;2023-05-23T19:44:40;101653.09;;;12.80;83.69
26775;BME280;14362;51.902;7.626;2023-05-23T19:48:42;101664.03;;;12.68;80.87
26775;BME280;14362;51.902;7.626;2023-05-23T19:52:44;101660.31;;;12.59;80.69
26775;BME280;14362;51.902;7.626;2023-05-23T19:56:45;101655.75;;;12.63;82.04
26775;BME280;14362;51.902;7.626;2023-05-23T20:00:47;101671.94;;;12.53;87.99
26775;BME280;14362;51.902;7.626;2023-05-23T20:04:49;101665.00;;;12.50;86.07
26775;BME280;14362;51.902;7.626;2023-05-23T20:08:51;101675.09;;;12.38;84.90
26775;BME280;14362;51.902;7.626;2023-05-23T20:12:52;101684.09;;;12.35;91.32
26775;BME280;14362;51.902;7.626;2023-05-23T20:16:54;101686.53;;;12.50;85.46
26775;BME280;14362;51.902;7.626;2023-05-23T20:20:57;101690.44;;;12.14;88.53
26775;BME280;14362;51.902;7.626;2023-05-23T20:24:58;101698.59;;;12.10;90.61
26775;BME280;14362;51.902;7.626;2023-05-23T20:29:00;101695.63;;;12.07;91.80
26775;BME280;14362;51.902;7.626;2023-05-23T20:33:01;101698.38;;;11.80;88.39
26775;BME280;14362;51.902;7.626;2023-05-23T20:37:04;101705.16;;;11.79;89.79
26775;BME280;14362;51.902;7.626;2023-05-23T20:41:06;101702.84;;;11.67;91.21
26775;BME280;14362;51.902;7.626;2023-05-23T20:45:07;101708.72;;;11.66;92.49
26775;BME280;14362;51.902;7.626;2023-05-23T20:49:09;101718.34;;;11.73;97.09
26775;BME280;14362;51.902;7.626;2023-05-23T20:53:12;101718.47;;;11.68;95.09
26775;BME280;14362;51.902;7.626;2023-05-23T20:57:13;101713.06;;;11.58;95.77